Time;durP1;ratioP1;P1;durP2;ratioP2;P2;SDS_P1;SDS_P2;PMS_P1;PMS_P2;Temp;Humidity;BMP_temperature;BMP_pressure;BME280_temperature;BME280_humidity;BME280_pressure;Samples;Min_cycle;Max_cycle;Signal;HPM_P1;HPM_P2
2022/02/28 00:01:09;;;;;;;9.30;2.98;;;;;;;2.20;76.96;148221.20;1661400;86;21076;-59
2022/02/28 00:03:36;;;;;;;6.50;2.65;;;;;;;2.18;76.99;148214.73;1635004;86;21180;-59
2022/02/28 00:06:03;;;;;;;4.45;2.22;;;;;;;2.16;77.24;148210.91;1654463;85;21109;-58
2022/02/28 00:08:32;;;;;;;10.50;3.15;;;;;;;2.12;76.38;148200.59;1654973;86;21129;-59
2022/02/28 00:10:59;;;;;;;5.35;2.30;;;;;;;2.10;76.45;148195.41;1680031;84;21502;-63
2022/02/28 00:13:26;;;;;;;6.45;2.33;;;;;;;2.08;77.08;148191.56;1676637;84;21084;-63
2022/02/28 00:15:52;;;;;;;4.17;2.35;;;;;;;2.06;76.15;148185.09;1676556;84;21144;-62
2022/02/28 00:18:19;;;;;;;9.90;2.40;;;;;;;2.04;76.57;148179.94;1676874;85;21067;-63
2022/02/28 00:20:46;;;;;;;7.25;2.72;;;;;;;2.02;75.94;148174.78;1676915;85;21037;-63
2022/02/28 00:23:13;;;;;;;6.20;2.55;;;;;;;1.99;76.63;148169.64;1676339;85;21056;-64
2022/02/28 00:25:41;;;;;;;8.13;2.15;;;;;;;1.97;76.56;148164.48;1676825;84;21839;-62
2022/02/28 00:28:09;;;;;;;12.37;2.27;;;;;;;1.95;76.39;148159.33;1676777;85;21147;-62
2022/02/28 00:30:37;;;;;;;5.85;2.98;;;;;;;1.93;76.39;148154.17;1670029;85;20954;-63
2022/02/28 00:33:04;;;;;;;8.78;2.80;;;;;;;1.92;75.77;148150.30;1667922;86;21347;-63
2022/02/28 00:35:33;;;;;;;5.65;1.72;;;;;;;1.89;75.65;148143.88;1659883;86;21116;-63
2022/02/28 00:38:00;;;;;;;7.12;2.45;;;;;;;1.87;75.99;148138.67;1662478;86;20996;-62
2022/02/28 00:40:29;;;;;;;4.12;2.10;;;;;;;1.85;75.85;148133.53;1662601;86;21052;-63
2022/02/28 00:42:57;;;;;;;4.95;1.90;;;;;;;1.83;75.98;148129.69;1662139;86;21072;-63
2022/02/28 00:45:24;;;;;;;6.60;2.37;;;;;;;1.81;76.02;148123.22;1662432;86;21064;-66
2022/02/28 00:47:54;;;;;;;6.97;1.82;;;;;;;1.79;76.33;148118.06;1661569;86;21665;-65
2022/02/28 00:50:21;;;;;;;5.58;2.20;;;;;;;1.75;76.19;148109.03;1662594;86;21075;-63
2022/02/28 00:52:47;;;;;;;8.88;2.30;;;;;;;1.73;75.11;148102.63;1662558;86;21447;-59
2022/02/28 00:55:14;;;;;;;7.25;2.00;;;;;;;1.74;75.28;148106.45;1662198;86;21080;-59
2022/02/28 00:57:41;;;;;;;4.58;2.17;;;;;;;1.74;75.54;148105.19;1662474;86;21143;-59
2022/02/28 01:00:11;;;;;;;3.33;1.90;;;;;;;1.74;75.42;148105.19;1662225;86;21735;-59
2022/02/28 01:02:39;;;;;;;5.95;2.40;;;;;;;1.73;74.97;148102.63;1663032;86;21659;-62
2022/02/28 01:05:09;;;;;;;6.45;2.00;;;;;;;1.70;74.71;148097.47;1661700;85;21441;-58
2022/02/28 01:07:38;;;;;;;4.75;1.82;;;;;;;1.68;74.61;148092.31;1662102;86;21159;-58
2022/02/28 01:10:07;;;;;;;5.03;1.82;;;;;;;1.66;74.64;148087.17;1662150;86;21125;-58
2022/02/28 01:12:36;;;;;;;6.75;1.87;;;;;;;1.65;74.10;148083.28;1688944;84;20945;-58
2022/02/28 01:15:05;;;;;;;3.87;1.70;;;;;;;1.65;73.82;148084.55;1694831;83;21215;-59
2022/02/28 01:17:32;;;;;;;6.12;1.75;;;;;;;1.61;73.31;148074.23;1713822;83;21090;-58
2022/02/28 01:20:01;;;;;;;4.65;1.95;;;;;;;1.60;73.08;148071.66;1713301;83;21636;-58
2022/02/28 01:22:29;;;;;;;4.65;1.25;;;;;;;1.59;72.63;148069.09;1714058;83;21092;-58
2022/02/28 01:24:55;;;;;;;3.85;1.70;;;;;;;1.59;71.66;148067.83;1713243;83;21040;-58
2022/02/28 01:27:22;;;;;;;6.03;2.05;;;;;;;1.59;71.66;148069.09;1713758;83;21048;-58
2022/02/28 01:29:49;;;;;;;4.97;2.08;;;;;;;1.59;71.83;148067.83;1702431;83;21961;-58
2022/02/28 01:32:16;;;;;;;4.60;1.85;;;;;;;1.57;71.48;148063.94;1685541;84;21155;-58
2022/02/28 01:34:43;;;;;;;2.77;1.30;;;;;;;1.56;71.46;148061.37;1685999;85;21033;-59
2022/02/28 01:37:10;;;;;;;4.10;2.20;;;;;;;1.54;71.17;148056.22;1685370;84;21471;-58
2022/02/28 01:39:39;;;;;;;3.50;1.60;;;;;;;1.52;71.06;148051.06;1686127;84;21580;-58
2022/02/28 01:42:05;;;;;;;4.08;2.12;;;;;;;1.51;70.72;148048.50;1684950;85;21568;-59
2022/02/28 01:44:32;;;;;;;7.42;2.40;;;;;;;1.50;70.55;148045.91;1685365;84;21036;-59
2022/02/28 01:47:01;;;;;;;3.95;2.08;;;;;;;1.48;70.71;148042.03;1684691;84;21096;-58
2022/02/28 01:49:29;;;;;;;9.08;2.52;;;;;;;1.49;70.52;148043.34;1685402;84;21152;-59
2022/02/28 01:51:55;;;;;;;4.22;2.45;;;;;;;1.49;70.63;148043.34;1685220;85;21143;-59
2022/02/28 01:54:23;;;;;;;2.25;1.52;;;;;;;1.48;70.67;148042.03;1685468;85;21672;-59
2022/02/28 01:56:50;;;;;;;4.17;2.15;;;;;;;1.48;70.67;148040.77;1636128;85;21103;-59
2022/02/28 01:59:17;;;;;;;4.85;2.40;;;;;;;1.49;70.75;148044.61;1685791;85;21082;-59
2022/02/28 02:01:44;;;;;;;9.00;3.00;;;;;;;1.50;70.85;148045.91;1685358;84;21087;-58
2022/02/28 02:04:11;;;;;;;5.55;2.42;;;;;;;1.50;70.97;148045.91;1684552;84;21083;-58
2022/02/28 02:06:38;;;;;;;6.30;2.95;;;;;;;1.53;71.28;148054.91;1684849;85;21845;-58
2022/02/28 02:09:05;;;;;;;6.30;2.30;;;;;;;1.54;71.52;148056.22;1684557;85;21040;-63
2022/02/28 02:11:33;;;;;;;7.05;2.72;;;;;;;1.54;71.71;148056.22;1680881;84;21100;-59
2022/02/28 02:14:00;;;;;;;6.85;3.00;;;;;;;1.55;71.61;148060.11;1676628;85;21097;-62
2022/02/28 02:16:27;;;;;;;6.33;2.58;;;;;;;1.56;71.85;148061.37;1697160;84;20988;-59
2022/02/28 02:18:54;;;;;;;5.55;2.77;;;;;;;1.58;72.24;148066.52;1707554;82;22101;-60
2022/02/28 02:21:21;;;;;;;8.65;2.80;;;;;;;1.60;72.37;148071.66;1707641;82;21091;-58
2022/02/28 02:23:48;;;;;;;7.05;2.72;;;;;;;1.62;72.73;148076.81;1707702;82;21535;-63
2022/02/28 02:26:14;;;;;;;8.90;3.47;;;;;;;1.64;72.83;148081.97;1677881;84;21071;-63
2022/02/28 02:28:42;;;;;;;6.00;2.90;;;;;;;1.64;73.01;148081.97;1677901;84;21166;-63
2022/02/28 02:31:10;;;;;;;8.73;3.12;;;;;;;1.65;73.18;148083.28;1676239;85;21200;-63
2022/02/28 02:33:38;;;;;;;8.18;3.50;;;;;;;1.65;73.48;148084.55;1737848;82;21083;-63
2022/02/28 02:36:07;;;;;;;8.00;2.72;;;;;;;1.62;73.87;148076.81;1735346;82;21090;-64
2022/02/28 02:38:37;;;;;;;11.90;3.02;;;;;;;1.62;74.39;148076.81;1725566;83;21484;-62
2022/02/28 02:41:07;;;;;;;7.50;2.72;;;;;;;1.62;74.78;148076.81;1695177;83;21108;-63
2022/02/28 02:43:35;;;;;;;7.08;3.15;;;;;;;1.64;75.37;148081.97;1725800;81;21093;-62
2022/02/28 02:46:03;;;;;;;11.83;2.98;;;;;;;1.65;75.43;148083.28;1701722;83;21104;-62
2022/02/28 02:48:30;;;;;;;8.83;3.30;;;;;;;1.67;75.29;148088.44;1705111;83;21478;-62
2022/02/28 02:50:59;;;;;;;8.08;3.08;;;;;;;1.69;76.26;148093.58;1703056;83;21070;-58
2022/02/28 02:53:26;;;;;;;9.48;3.55;;;;;;;1.71;76.47;148098.73;1651194;85;21457;-57
2022/02/28 02:55:53;;;;;;;13.78;3.65;;;;;;;1.72;76.60;148101.31;1674815;85;21686;-58
2022/02/28 02:58:20;;;;;;;7.08;2.92;;;;;;;1.75;76.01;148107.77;1704695;84;21122;-62
2022/02/28 03:00:52;;;;;;;6.53;3.27;;;;;;;1.75;75.29;148109.03;1704997;83;21067;-63
2022/02/28 03:03:22;;;;;;;7.97;3.08;;;;;;;1.78;76.18;148115.50;1703761;83;21123;-63
2022/02/28 03:05:50;;;;;;;9.93;3.42;;;;;;;1.79;75.93;148118.06;1681218;84;21092;-58
2022/02/28 03:08:18;;;;;;;9.50;3.62;;;;;;;1.80;77.23;148121.97;1707690;82;21123;-58
2022/02/28 03:10:45;;;;;;;8.73;3.50;;;;;;;1.81;76.53;148123.22;1707761;82;21075;-58
2022/02/28 03:13:12;;;;;;;11.53;3.00;;;;;;;1.81;76.32;148123.22;1707473;82;21329;-59
2022/02/28 03:15:39;;;;;;;10.28;3.17;;;;;;;1.81;76.27;148123.22;1700830;82;21115;-58
2022/02/28 03:18:08;;;;;;;13.98;3.85;;;;;;;1.79;75.33;148118.06;1667949;84;21332;-58
2022/02/28 03:20:36;;;;;;;8.20;3.08;;;;;;;1.76;76.12;148111.61;1668253;84;21193;-59
2022/02/28 03:23:03;;;;;;;9.03;3.77;;;;;;;1.75;76.29;148107.77;1667725;86;21047;-62
2022/02/28 03:25:30;;;;;;;10.35;3.75;;;;;;;1.73;75.71;148102.63;1667900;84;21091;-62
2022/02/28 03:28:01;;;;;;;15.23;4.90;;;;;;;1.70;75.82;148097.47;1667303;84;21123;-63
2022/02/28 03:30:29;;;;;;;11.70;4.42;;;;;;;1.69;76.43;148093.58;1664808;86;21097;-62
2022/02/28 03:32:56;;;;;;;8.98;4.08;;;;;;;1.67;76.39;148089.75;1662777;85;22002;-62
2022/02/28 03:35:23;;;;;;;16.50;5.12;;;;;;;1.65;76.21;148084.55;1655626;85;21065;-62
2022/02/28 03:37:49;;;;;;;9.10;4.03;;;;;;;1.66;77.67;148085.86;1654498;86;20998;-63
2022/02/28 03:40:16;;;;;;;8.55;3.87;;;;;;;1.66;77.40;148087.17;1654142;85;21121;-63
2022/02/28 03:42:43;;;;;;;11.97;4.65;;;;;;;1.67;77.33;148089.75;1654379;85;21105;-63
2022/02/28 03:45:10;;;;;;;13.98;4.62;;;;;;;1.68;77.60;148092.31;1653666;85;21113;-62
2022/02/28 03:47:37;;;;;;;13.60;4.95;;;;;;;1.68;77.95;148092.31;1654391;85;21116;-62
2022/02/28 03:50:24;;;;;;;6.90;2.98;;;;;;;1.69;77.89;148094.89;1654248;85;21157;-62
2022/02/28 03:52:52;;;;;;;10.00;4.12;;;;;;;1.68;78.28;148092.31;1654088;86;21047;-62
2022/02/28 03:55:24;;;;;;;11.95;4.70;;;;;;;1.69;78.37;148094.89;1654547;85;21081;-62
2022/02/28 03:57:51;;;;;;;13.15;5.37;;;;;;;1.70;77.85;148096.16;1654047;85;21100;-63
2022/02/28 04:00:18;;;;;;;12.65;4.85;;;;;;;1.71;78.06;148100.05;1654274;86;21073;-63
2022/02/28 04:02:45;;;;;;;11.55;4.53;;;;;;;1.73;78.20;148102.63;1654148;85;21042;-62
2022/02/28 04:05:12;;;;;;;16.35;4.22;;;;;;;1.74;78.53;148105.19;1669564;85;21590;-60
2022/02/28 04:07:41;;;;;;;13.70;4.60;;;;;;;1.74;78.05;148105.19;1682019;85;21100;-57
2022/02/28 04:10:09;;;;;;;12.88;4.65;;;;;;;1.73;77.21;148103.88;1681644;84;21126;-58
2022/02/28 04:12:38;;;;;;;11.10;4.33;;;;;;;1.73;77.93;148102.63;1651321;85;20974;-58
2022/02/28 04:15:07;;;;;;;11.15;4.72;;;;;;;1.72;77.55;148101.31;1675737;85;21096;-59
2022/02/28 04:17:34;;;;;;;14.45;5.22;;;;;;;1.70;77.40;148097.47;1675538;84;21527;-60
2022/02/28 04:20:10;;;;;;;9.38;4.58;;;;;;;1.71;78.21;148098.73;1667229;85;21096;-58
2022/02/28 04:22:38;;;;;;;12.15;4.25;;;;;;;1.71;78.36;148100.05;1676317;84;21907;-57
2022/02/28 04:25:08;;;;;;;10.90;4.67;;;;;;;1.70;77.91;148097.47;1675780;85;21061;-58
2022/02/28 04:27:36;;;;;;;17.87;5.03;;;;;;;1.70;77.77;148096.16;1676070;85;21025;-58
2022/02/28 04:30:08;;;;;;;10.25;4.25;;;;;;;1.68;77.75;148091.00;1646615;86;21400;-59
2022/02/28 04:32:36;;;;;;;16.07;4.78;;;;;;;1.66;77.81;148087.17;1664923;86;20988;-58
2022/02/28 04:35:06;;;;;;;15.78;4.80;;;;;;;1.66;78.50;148087.17;1661340;86;21827;-58
2022/02/28 04:37:34;;;;;;;11.53;5.00;;;;;;;1.65;78.04;148083.28;1661894;86;21072;-58
2022/02/28 04:40:02;;;;;;;10.58;4.08;;;;;;;1.63;78.21;148078.13;1661141;86;21085;-62
2022/02/28 04:42:30;;;;;;;9.25;4.15;;;;;;;1.61;78.44;148074.23;1661422;86;21092;-58
2022/02/28 04:44:57;;;;;;;13.30;4.25;;;;;;;1.60;78.06;148071.66;1660919;86;21515;-62
2022/02/28 04:47:24;;;;;;;12.53;4.78;;;;;;;1.58;78.30;148066.52;1661256;86;21620;-63
2022/02/28 04:50:06;;;;;;;10.38;4.80;;;;;;;1.57;78.90;148063.94;1657156;86;21083;-63
2022/02/28 04:52:33;;;;;;;10.25;4.47;;;;;;;1.56;78.60;148061.37;1635250;86;21558;-63
2022/02/28 04:55:00;;;;;;;9.25;4.47;;;;;;;1.56;78.54;148061.37;1661848;85;21314;-63
2022/02/28 04:57:29;;;;;;;11.33;4.65;;;;;;;1.54;79.36;148056.22;1661514;86;21060;-60
2022/02/28 04:59:56;;;;;;;10.85;4.42;;;;;;;1.54;79.48;148057.48;1662421;86;21092;-59
2022/02/28 05:02:23;;;;;;;14.10;4.87;;;;;;;1.55;80.40;148058.78;1661878;86;21750;-59
2022/02/28 05:04:58;;;;;;;9.75;4.10;;;;;;;1.56;80.70;148061.37;1660672;86;21095;-59
2022/02/28 05:07:25;;;;;;;10.80;4.50;;;;;;;1.57;80.42;148063.94;1667528;86;21111;-58
2022/02/28 05:09:52;;;;;;;13.05;4.58;;;;;;;1.57;80.57;148063.94;1682194;84;21643;-58
2022/02/28 05:12:20;;;;;;;10.32;3.77;;;;;;;1.57;80.62;148063.94;1706142;83;21796;-58
2022/02/28 05:14:47;;;;;;;19.32;4.65;;;;;;;1.59;81.35;148069.09;1711115;83;20994;-59
2022/02/28 05:17:15;;;;;;;20.70;5.00;;;;;;;1.59;81.01;148067.83;1710829;83;21057;-59
2022/02/28 05:19:43;;;;;;;10.58;4.58;;;;;;;1.59;80.61;148067.83;1711239;83;21090;-58
2022/02/28 05:22:10;;;;;;;17.15;5.72;;;;;;;1.58;80.94;148066.52;1711134;83;21132;-57
2022/02/28 05:24:38;;;;;;;13.03;4.58;;;;;;;1.59;81.01;148069.09;1684068;83;20946;-62
2022/02/28 05:27:08;;;;;;;15.35;4.92;;;;;;;1.58;81.02;148066.52;1684136;83;21120;-58
2022/02/28 05:29:34;;;;;;;15.23;4.55;;;;;;;1.58;81.24;148066.52;1695978;83;21029;-59
2022/02/28 05:32:01;;;;;;;13.28;4.67;;;;;;;1.58;81.29;148066.52;1661242;85;21591;-59
2022/02/28 05:34:43;;;;;;;11.15;4.37;;;;;;;1.59;80.96;148069.09;1661541;85;21109;-59
2022/02/28 05:37:11;;;;;;;12.10;5.08;;;;;;;1.61;81.89;148072.98;1661123;85;21012;-59
2022/02/28 05:39:43;;;;;;;15.03;4.62;;;;;;;1.61;81.96;148074.23;1659900;86;21080;-58
2022/02/28 05:42:12;;;;;;;12.13;4.87;;;;;;;1.62;81.95;148076.81;1661125;85;21623;-58
2022/02/28 05:44:39;;;;;;;12.70;5.15;;;;;;;1.63;81.98;148079.39;1661992;86;21148;-59
2022/02/28 05:47:07;;;;;;;13.15;5.83;;;;;;;1.62;81.24;148076.81;1661603;86;21200;-62
2022/02/28 05:49:39;;;;;;;13.38;4.70;;;;;;;1.62;81.18;148076.81;1661986;85;22446;-62
2022/02/28 05:52:06;;;;;;;12.85;5.30;;;;;;;1.63;81.59;148079.39;1661419;86;21159;-62
2022/02/28 05:54:33;;;;;;;11.97;4.90;;;;;;;1.61;80.56;148074.23;1661673;85;21116;-62
2022/02/28 05:57:00;;;;;;;11.65;5.10;;;;;;;1.61;80.59;148074.23;1661403;85;21603;-63
2022/02/28 05:59:27;;;;;;;15.23;5.08;;;;;;;1.62;80.30;148076.81;1661477;85;21076;-63
2022/02/28 06:01:54;;;;;;;19.62;5.95;;;;;;;1.63;79.65;148078.13;1661611;86;21064;-62
2022/02/28 06:04:20;;;;;;;10.72;4.70;;;;;;;1.62;79.57;148076.81;1662330;85;21060;-63
2022/02/28 06:06:48;;;;;;;7.92;4.17;;;;;;;1.62;79.58;148075.56;1682691;85;21089;-64
2022/02/28 06:09:15;;;;;;;18.85;5.28;;;;;;;1.62;79.45;148076.81;1682958;84;21495;-57
2022/02/28 06:11:42;;;;;;;16.70;5.05;;;;;;;1.61;79.28;148074.23;1684743;84;21076;-62
2022/02/28 06:14:09;;;;;;;12.40;4.47;;;;;;;1.61;79.79;148074.23;1676518;85;21170;-63
2022/02/28 06:16:38;;;;;;;16.35;4.85;;;;;;;1.63;79.89;148079.39;1677975;83;21058;-62
2022/02/28 06:19:05;;;;;;;10.65;4.72;;;;;;;1.63;79.89;148079.39;1686826;85;21029;-62
2022/02/28 06:21:32;;;;;;;11.35;4.75;;;;;;;1.63;78.89;148079.39;1686989;85;21100;-64
2022/02/28 06:24:00;;;;;;;15.08;5.83;;;;;;;1.63;78.56;148078.13;1686566;85;21060;-58
2022/02/28 06:26:27;;;;;;;18.25;4.67;;;;;;;1.61;78.81;148074.23;1686931;84;21171;-60
2022/02/28 06:28:54;;;;;;;16.48;4.58;;;;;;;1.61;79.44;148074.23;1687054;83;21010;-58
2022/02/28 06:31:21;;;;;;;12.63;5.05;;;;;;;1.62;79.24;148075.56;1695162;83;21481;-58
2022/02/28 06:33:48;;;;;;;9.25;4.40;;;;;;;1.62;79.83;148076.81;1672070;85;21079;-59
2022/02/28 06:36:14;;;;;;;12.00;5.60;;;;;;;1.65;80.54;148084.55;1672090;85;21075;-62
2022/02/28 06:38:41;;;;;;;8.90;4.70;;;;;;;1.68;79.59;148091.00;1672450;85;21164;-58
2022/02/28 06:41:09;;;;;;;22.60;5.58;;;;;;;1.70;79.21;148097.47;1671771;85;21055;-63
2022/02/28 06:43:35;;;;;;;12.58;4.83;;;;;;;1.69;78.88;148093.58;1672438;85;21521;-62
2022/02/28 06:46:03;;;;;;;12.80;5.08;;;;;;;1.69;78.82;148094.89;1671778;85;21135;-62
2022/02/28 06:48:30;;;;;;;12.05;4.70;;;;;;;1.70;79.03;148097.47;1672352;85;22332;-61
2022/02/28 06:50:56;;;;;;;14.47;4.78;;;;;;;1.73;78.56;148102.63;1671991;85;21175;-60
2022/02/28 06:53:24;;;;;;;15.03;5.15;;;;;;;1.74;77.75;148105.19;1687361;83;21056;-60
2022/02/28 06:55:54;;;;;;;15.20;5.33;;;;;;;1.75;77.89;148109.03;1709807;82;21017;-59
2022/02/28 06:58:22;;;;;;;8.85;4.58;;;;;;;1.77;78.02;148112.92;1691861;83;21366;-58
2022/02/28 07:00:52;;;;;;;12.07;5.15;;;;;;;1.79;78.71;148119.39;1709859;82;21416;-58
2022/02/28 07:03:30;;;;;;;10.65;4.85;;;;;;;1.81;78.27;148123.22;1549806;90;21228;-62
2022/02/28 07:05:58;;;;;;;9.05;4.90;;;;;;;1.83;77.68;148129.69;1689888;83;21095;-62
2022/02/28 07:08:25;;;;;;;9.63;4.78;;;;;;;1.84;78.04;148132.27;1692047;84;21055;-62
2022/02/28 07:10:52;;;;;;;14.73;5.08;;;;;;;1.85;77.52;148133.53;1698269;83;21092;-62
2022/02/28 07:13:19;;;;;;;13.68;5.92;;;;;;;1.85;76.83;148134.84;1720960;83;21588;-59
2022/02/28 07:15:47;;;;;;;14.65;5.30;;;;;;;1.86;76.29;148136.09;1720979;83;21361;-64
2022/02/28 07:18:14;;;;;;;12.28;5.00;;;;;;;1.86;76.50;148136.09;1720496;83;21757;-64
2022/02/28 07:20:41;;;;;;;10.53;5.05;;;;;;;1.88;76.83;148141.30;1721167;83;21013;-59
2022/02/28 07:23:07;;;;;;;12.35;5.55;;;;;;;1.90;75.73;148146.45;1720385;83;21139;-58
2022/02/28 07:25:35;;;;;;;13.20;5.25;;;;;;;1.92;76.40;148151.59;1688645;83;21486;-59
2022/02/28 07:28:03;;;;;;;11.97;5.65;;;;;;;1.93;75.88;148154.17;1720538;83;21505;-58
2022/02/28 07:30:32;;;;;;;14.07;3.95;;;;;;;1.96;76.71;148161.91;1689117;84;21082;-58
2022/02/28 07:32:59;;;;;;;11.60;4.72;;;;;;;1.98;75.77;148167.06;1710988;83;21413;-58
2022/02/28 07:35:27;;;;;;;15.20;5.33;;;;;;;2.00;75.29;148172.22;1692173;84;21062;-59
2022/02/28 07:37:54;;;;;;;11.15;4.53;;;;;;;2.04;75.90;148179.94;1686901;83;21021;-58
2022/02/28 07:40:21;;;;;;;10.85;4.65;;;;;;;2.07;76.54;148187.67;1687751;83;21050;-60
2022/02/28 07:42:47;;;;;;;9.95;4.35;;;;;;;2.11;75.49;148199.28;1653967;85;20970;-59
2022/02/28 07:45:14;;;;;;;10.13;4.50;;;;;;;2.17;74.23;148213.47;1689782;84;21052;-59
2022/02/28 07:47:41;;;;;;;8.85;4.22;;;;;;;2.19;73.93;148217.31;1691941;84;21051;-59
2022/02/28 07:50:09;;;;;;;12.47;4.40;;;;;;;2.18;73.17;148216.06;1657073;86;21112;-59
2022/02/28 07:52:36;;;;;;;9.28;4.12;;;;;;;2.17;72.79;148212.16;1690421;84;21519;-59
2022/02/28 07:55:04;;;;;;;7.50;3.75;;;;;;;2.15;73.07;148209.59;1660430;84;21087;-58
2022/02/28 07:57:31;;;;;;;7.15;3.17;;;;;;;2.16;72.83;148210.91;1690270;83;21521;-58
2022/02/28 07:59:59;;;;;;;16.55;4.53;;;;;;;2.17;73.40;148213.47;1660966;84;21003;-59
2022/02/28 08:02:26;;;;;;;11.43;5.12;;;;;;;2.18;73.97;148216.06;1690026;84;21108;-59
2022/02/28 08:04:53;;;;;;;8.28;4.00;;;;;;;2.20;73.46;148221.20;1660707;84;21475;-64
2022/02/28 08:07:21;;;;;;;9.70;3.98;;;;;;;2.22;73.32;148226.36;1689878;83;21040;-62
2022/02/28 08:09:48;;;;;;;11.00;4.50;;;;;;;2.24;73.18;148230.25;1658428;84;21507;-62
2022/02/28 08:12:15;;;;;;;10.10;4.33;;;;;;;2.28;74.16;148241.81;1689759;83;21047;-62
2022/02/28 08:14:42;;;;;;;8.80;4.10;;;;;;;2.34;73.91;148254.75;1650975;85;21185;-63
2022/02/28 08:17:09;;;;;;;11.57;4.10;;;;;;;2.39;72.24;148267.63;1690191;83;21131;-63
2022/02/28 08:19:36;;;;;;;16.93;4.20;;;;;;;2.41;73.39;148272.78;1691693;83;21100;-62
2022/02/28 08:22:04;;;;;;;8.90;3.98;;;;;;;2.43;71.85;148277.94;1689453;83;21110;-63
2022/02/28 08:24:32;;;;;;;14.70;4.75;;;;;;;2.44;71.25;148280.52;1659125;85;21092;-62
2022/02/28 08:27:00;;;;;;;7.67;3.70;;;;;;;2.50;71.14;148294.72;1691419;84;21076;-62
2022/02/28 08:29:27;;;;;;;7.92;4.20;;;;;;;2.53;69.80;148303.70;1689182;83;21197;-62
2022/02/28 08:31:54;;;;;;;12.80;4.70;;;;;;;2.53;69.82;148303.70;1660502;84;20961;-63
2022/02/28 08:34:21;;;;;;;14.35;5.03;;;;;;;2.57;70.23;148314.06;1689593;83;21089;-58
2022/02/28 08:36:48;;;;;;;11.03;4.87;;;;;;;2.61;71.05;148321.80;1688383;84;20890;-59
2022/02/28 08:39:15;;;;;;;12.78;5.30;;;;;;;2.64;70.93;148329.53;1689711;83;21143;-59
2022/02/28 08:41:41;;;;;;;8.38;4.42;;;;;;;2.65;69.71;148333.42;1689936;83;21864;-59
2022/02/28 08:44:08;;;;;;;10.23;4.37;;;;;;;2.66;69.29;148334.69;1659389;86;21048;-59
2022/02/28 08:46:37;;;;;;;9.45;4.40;;;;;;;2.65;69.35;148332.11;1690538;84;21052;-59
2022/02/28 08:49:05;;;;;;;14.80;4.22;;;;;;;2.64;69.30;148329.53;1694973;84;21433;-63
2022/02/28 08:51:31;;;;;;;10.88;4.85;;;;;;;2.66;69.82;148336.00;1682642;83;22022;-62
2022/02/28 08:53:58;;;;;;;13.80;4.92;;;;;;;2.69;69.50;148342.42;1689735;83;21121;-63
2022/02/28 08:56:25;;;;;;;15.15;5.08;;;;;;;2.70;68.85;148346.31;1685066;83;21491;-63
2022/02/28 08:58:52;;;;;;;12.10;5.15;;;;;;;2.71;68.79;148347.56;1690679;83;21070;-58
2022/02/28 09:01:18;;;;;;;11.08;4.70;;;;;;;2.74;69.27;148354.03;1689829;83;21145;-60
2022/02/28 09:03:46;;;;;;;12.47;5.15;;;;;;;2.74;69.29;148355.31;1686558;83;21515;-62
2022/02/28 09:06:12;;;;;;;13.85;5.30;;;;;;;2.74;68.92;148354.03;1669794;84;21193;-63
2022/02/28 09:08:40;;;;;;;11.68;4.30;;;;;;;2.71;69.07;148348.87;1670566;84;21033;-62
2022/02/28 09:11:08;;;;;;;11.25;4.50;;;;;;;2.72;69.45;148350.16;1679899;84;21051;-58
2022/02/28 09:13:35;;;;;;;12.35;5.20;;;;;;;2.77;69.20;148363.09;1698287;84;21607;-58
2022/02/28 09:16:03;;;;;;;9.38;4.45;;;;;;;2.88;70.28;148388.86;1698373;84;21139;-58
2022/02/28 09:18:30;;;;;;;17.40;5.42;;;;;;;2.96;68.38;148409.48;1698243;84;21087;-58
2022/02/28 09:20:57;;;;;;;12.65;4.28;;;;;;;3.00;68.25;148419.84;1697613;84;20985;-63
2022/02/28 09:23:24;;;;;;;8.95;4.60;;;;;;;3.01;67.55;148422.42;1697552;84;21556;-63
2022/02/28 09:25:50;;;;;;;9.48;4.95;;;;;;;3.07;67.37;148437.89;1719068;82;21044;-62
2022/02/28 09:28:17;;;;;;;12.65;5.65;;;;;;;3.16;68.89;148459.83;1721030;83;21080;-62
2022/02/28 09:30:45;;;;;;;9.50;4.80;;;;;;;3.29;69.44;148492.09;1662793;84;21175;-63
2022/02/28 09:33:12;;;;;;;13.98;4.75;;;;;;;3.38;68.14;148515.30;1684932;85;21077;-58
2022/02/28 09:35:38;;;;;;;10.93;5.22;;;;;;;3.49;67.31;148541.12;1687978;85;21118;-58
2022/02/28 09:38:10;;;;;;;10.60;5.37;;;;;;;3.55;67.57;148556.61;1687102;83;21061;-59
2022/02/28 09:40:37;;;;;;;28.35;5.75;;;;;;;3.51;65.29;148547.56;1688104;85;21050;-62
2022/02/28 09:43:21;;;;;;;15.95;6.47;;;;;;;3.43;64.52;148528.23;1687548;85;21751;-62
2022/02/28 09:46:07;;;;;;;11.10;5.12;;;;;;;3.37;65.08;148511.45;1687547;85;21117;-62
2022/02/28 09:48:53;;;;;;;26.52;5.92;;;;;;;3.41;66.93;148523.03;1688207;85;21106;-62
2022/02/28 09:51:25;;;;;;;7.75;4.92;;;;;;;3.53;65.33;148551.45;1683318;84;21074;-59
2022/02/28 09:53:53;;;;;;;10.63;5.62;;;;;;;3.53;65.33;148551.45;1680983;85;21054;-59
2022/02/28 09:56:24;;;;;;;12.58;5.17;;;;;;;3.51;65.12;148546.28;1674569;83;21851;-63
2022/02/28 09:58:54;;;;;;;20.00;5.78;;;;;;;3.48;65.72;148539.81;1688337;84;21027;-62
2022/02/28 10:01:20;;;;;;;10.28;5.08;;;;;;;3.38;65.22;148514.03;1687302;84;21098;-63
2022/02/28 10:03:48;;;;;;;13.45;5.03;;;;;;;3.31;65.51;148497.25;1687735;83;21036;-60
2022/02/28 10:06:16;;;;;;;11.18;4.85;;;;;;;3.07;64.21;148437.89;1687682;83;21094;-60
2022/02/28 10:08:45;;;;;;;10.40;5.12;;;;;;;3.05;65.71;148431.42;1690894;84;21044;-63
2022/02/28 10:11:30;;;;;;;12.58;5.80;;;;;;;3.05;65.71;148431.42;1702939;83;21004;-58
2022/02/28 10:14:04;;;;;;;9.98;4.58;;;;;;;3.02;65.54;148425.00;1719938;83;20969;-60
2022/02/28 10:16:42;;;;;;;8.53;4.17;;;;;;;2.97;64.88;148412.06;1720797;83;21549;-59
2022/02/28 10:19:12;;;;;;;8.05;4.65;;;;;;;2.96;65.31;148409.48;1721248;83;20980;-58
2022/02/28 10:21:44;;;;;;;7.15;3.83;;;;;;;2.88;65.75;148388.86;1721508;83;23155;-58
2022/02/28 10:24:18;;;;;;;10.60;4.85;;;;;;;2.84;66.57;148381.12;1720864;83;21000;-59
2022/02/28 10:27:00;;;;;;;12.18;4.65;;;;;;;2.86;67.48;148386.28;1571513;90;21501;-64
2022/02/28 10:29:46;;;;;;;10.68;4.95;;;;;;;2.90;68.13;148394.02;1693017;83;21048;-59
2022/02/28 10:32:27;;;;;;;9.58;4.62;;;;;;;2.93;66.68;148401.75;1661691;84;21298;-59
2022/02/28 10:38:15;;;;;;;12.53;5.05;;;;;;;3.02;66.66;148425.00;1684616;84;21596;-63
2022/02/28 10:40:44;;;;;;;9.55;5.10;;;;;;;3.08;66.40;148440.47;1675269;84;21650;-63
2022/02/28 10:43:26;;;;;;;9.83;4.90;;;;;;;3.12;65.74;148449.52;1672416;85;21078;-60
2022/02/28 10:45:54;;;;;;;10.88;4.55;;;;;;;3.17;65.59;148461.09;1673657;83;21396;-62
2022/02/28 10:48:22;;;;;;;9.48;5.33;;;;;;;3.19;65.92;148467.56;1644131;85;21137;-59
2022/02/28 10:50:53;;;;;;;9.75;5.00;;;;;;;3.22;65.67;148475.31;1673250;84;21620;-59
2022/02/28 10:53:22;;;;;;;8.83;4.95;;;;;;;3.27;65.20;148488.19;1672718;85;21611;-63
2022/02/28 10:55:51;;;;;;;11.15;4.65;;;;;;;3.33;65.45;148502.41;1681666;83;21401;-63
2022/02/28 10:58:25;;;;;;;8.15;4.55;;;;;;;3.39;65.09;148517.88;1716835;82;21575;-63
2022/02/28 11:01:04;;;;;;;9.58;4.80;;;;;;;3.43;65.01;148528.23;1691165;83;20976;-62
2022/02/28 11:03:48;;;;;;;11.33;4.97;;;;;;;3.50;64.82;148543.72;1662554;85;21071;-64
2022/02/28 11:06:26;;;;;;;10.85;4.85;;;;;;;3.52;65.62;148548.87;1680224;84;21522;-63
2022/02/28 11:08:52;;;;;;;9.95;5.08;;;;;;;3.57;66.59;148561.77;1661332;84;21567;-63
2022/02/28 11:11:19;;;;;;;9.25;4.12;;;;;;;3.60;65.09;148568.25;1705316;84;21050;-63
2022/02/28 11:13:48;;;;;;;10.15;4.70;;;;;;;3.62;64.48;148574.66;1707395;84;21428;-63
2022/02/28 11:16:14;;;;;;;9.43;4.70;;;;;;;3.65;62.57;148582.45;1706811;84;21121;-59
2022/02/28 11:18:43;;;;;;;8.48;4.25;;;;;;;3.63;61.70;148577.25;1711864;82;21513;-58
2022/02/28 11:21:09;;;;;;;11.68;4.55;;;;;;;3.61;61.05;148570.81;1721735;82;21070;-58
2022/02/28 11:23:44;;;;;;;8.45;4.40;;;;;;;3.60;62.74;148569.50;1690251;83;21136;-58
2022/02/28 11:26:12;;;;;;;7.20;4.15;;;;;;;3.61;62.97;148570.81;1686860;83;22228;-62
2022/02/28 11:28:38;;;;;;;7.90;3.75;;;;;;;3.62;62.13;148574.66;1690255;83;21052;-63
2022/02/28 11:31:12;;;;;;;7.35;4.08;;;;;;;3.63;61.74;148577.25;1665817;84;20991;-63
2022/02/28 11:34:03;;;;;;;11.03;4.53;;;;;;;3.67;60.74;148587.61;1693163;84;21485;-62
2022/02/28 11:36:49;;;;;;;10.28;4.25;;;;;;;3.70;60.89;148595.34;1685407;83;21526;-64
2022/02/28 11:39:17;;;;;;;11.08;4.60;;;;;;;3.73;61.15;148603.09;1685506;83;22288;-63